Weather at Novo Mesto Airfield

Public forecast

Using degrees Celsius for public forecast. Weather courtesy of forecast.io.

Closest aviation weather report (METAR) to Novo Mesto Airfield

Closest report is Cerklje Air Base, 18.3 nm (33.8 km) ENE. Retrieved 2022/08/17 17:00 UTC (6 minutes ago):

LJCE 171700Z 26011KT CAVOK 32/13 Q1010 RMK BLU

Closest aviation forecast (TAF) to Novo Mesto Airfield

Closest forecast is Ljubljana Jože Pučnik Airport, 36.9 nm (68.4 km) NW. Retrieved 2022/08/17 12:07 UTC (5 hours ago):

TAF LJLJ 171100Z 1712/1812 23008KT 9999 FEW060